sensor_id;sensor_type;location;lat;lon;timestamp;pressure;altitude;pressure_sealevel;temperature;humidity
7730;BME280;3908;52.310;7.230;2023-03-02T00:03:39;51217.44;;;-145.83;100.00
7730;BME280;3908;52.310;7.230;2023-03-02T00:06:28;51215.47;;;-145.83;100.00
7730;BME280;3908;52.310;7.230;2023-03-02T00:09:16;51203.72;;;-145.83;100.00
7730;BME280;3908;52.310;7.230;2023-03-02T00:12:05;51219.38;;;-145.83;100.00
7730;BME280;3908;52.310;7.230;2023-03-02T00:14:53;51199.81;;;-145.83;100.00
7730;BME280;3908;52.310;7.230;2023-03-02T00:17:40;51217.44;;;-145.83;100.00
7730;BME280;3908;52.310;7.230;2023-03-02T00:20:28;51233.06;;;-145.83;100.00
7730;BME280;3908;52.310;7.230;2023-03-02T00:23:15;51199.81;;;-145.83;100.00
7730;BME280;3908;52.310;7.230;2023-03-02T00:26:02;51205.69;;;-145.83;100.00
7730;BME280;3908;52.310;7.230;2023-03-02T00:28:50;51188.09;;;-145.83;100.00
7730;BME280;3908;52.310;7.230;2023-03-02T00:31:37;51227.22;;;-145.83;100.00
7730;BME280;3908;52.310;7.230;2023-03-02T00:34:24;51254.59;;;-145.83;100.00
7730;BME280;3908;52.310;7.230;2023-03-02T00:37:12;51217.44;;;-145.83;100.00
7730;BME280;3908;52.310;7.230;2023-03-02T00:39:59;51205.69;;;-145.83;100.00
7730;BME280;3908;52.310;7.230;2023-03-02T00:42:46;51246.78;;;-145.83;100.00
7730;BME280;3908;52.310;7.230;2023-03-02T00:45:33;51217.44;;;-145.83;100.00
7730;BME280;3908;52.310;7.230;2023-03-02T00:48:21;51205.69;;;-145.83;100.00
7730;BME280;3908;52.310;7.230;2023-03-02T00:51:09;51244.81;;;-145.83;100.00
7730;BME280;3908;52.310;7.230;2023-03-02T00:53:57;51238.94;;;-145.83;100.00
7730;BME280;3908;52.310;7.230;2023-03-02T00:56:47;51221.34;;;-145.83;100.00
7730;BME280;3908;52.310;7.230;2023-03-02T00:59:36;51227.22;;;-145.83;100.00
7730;BME280;3908;52.310;7.230;2023-03-02T01:02:23;51237.00;;;-145.83;100.00
7730;BME280;3908;52.310;7.230;2023-03-02T01:05:10;51227.22;;;-145.83;100.00
7730;BME280;3908;52.310;7.230;2023-03-02T01:07:57;51188.09;;;-145.83;100.00
7730;BME280;3908;52.310;7.230;2023-03-02T01:10:45;51203.72;;;-145.83;100.00
7730;BME280;3908;52.310;7.230;2023-03-02T01:13:32;51199.81;;;-145.83;100.00
7730;BME280;3908;52.310;7.230;2023-03-02T01:16:20;51237.00;;;-145.83;100.00
7730;BME280;3908;52.310;7.230;2023-03-02T01:19:08;51242.84;;;-145.83;100.00
7730;BME280;3908;52.310;7.230;2023-03-02T01:21:54;51227.22;;;-145.83;100.00
7730;BME280;3908;52.310;7.230;2023-03-02T01:24:42;51250.69;;;-145.83;100.00
7730;BME280;3908;52.310;7.230;2023-03-02T01:27:30;51219.38;;;-145.83;100.00
7730;BME280;3908;52.310;7.230;2023-03-02T01:30:17;51229.16;;;-145.83;100.00
7730;BME280;3908;52.310;7.230;2023-03-02T01:33:04;51227.22;;;-145.83;100.00
7730;BME280;3908;52.310;7.230;2023-03-02T01:35:51;51215.47;;;-145.83;100.00
7730;BME280;3908;52.310;7.230;2023-03-02T01:38:38;51199.81;;;-145.83;100.00
7730;BME280;3908;52.310;7.230;2023-03-02T01:41:25;51188.09;;;-145.83;100.00
7730;BME280;3908;52.310;7.230;2023-03-02T01:44:34;51217.44;;;-145.83;100.00
7730;BME280;3908;52.310;7.230;2023-03-02T01:47:24;51209.59;;;-145.83;100.00
7730;BME280;3908;52.310;7.230;2023-03-02T01:50:17;51254.59;;;-145.83;100.00
7730;BME280;3908;52.310;7.230;2023-03-02T01:53:05;51233.06;;;-145.83;100.00
7730;BME280;3908;52.310;7.230;2023-03-02T01:55:53;51227.22;;;-145.83;100.00
7730;BME280;3908;52.310;7.230;2023-03-02T01:58:40;51240.91;;;-145.83;100.00
7730;BME280;3908;52.310;7.230;2023-03-02T02:01:29;51235.03;;;-145.83;100.00
7730;BME280;3908;52.310;7.230;2023-03-02T02:04:19;51199.81;;;-145.83;100.00
7730;BME280;3908;52.310;7.230;2023-03-02T02:07:08;51237.00;;;-145.83;100.00
7730;BME280;3908;52.310;7.230;2023-03-02T02:09:55;51217.44;;;-145.83;100.00
7730;BME280;3908;52.310;7.230;2023-03-02T02:12:42;51238.94;;;-145.83;100.00
7730;BME280;3908;52.310;7.230;2023-03-02T02:15:29;51213.50;;;-145.83;100.00
7730;BME280;3908;52.310;7.230;2023-03-02T02:18:18;51190.03;;;-145.83;100.00
7730;BME280;3908;52.310;7.230;2023-03-02T02:21:06;51217.44;;;-145.83;100.00
7730;BME280;3908;52.310;7.230;2023-03-02T02:24:02;51231.13;;;-145.83;100.00
7730;BME280;3908;52.310;7.230;2023-03-02T02:26:55;51190.03;;;-145.83;100.00
7730;BME280;3908;52.310;7.230;2023-03-02T02:29:45;51190.03;;;-145.83;100.00
7730;BME280;3908;52.310;7.230;2023-03-02T02:32:35;51237.00;;;-145.83;100.00
7730;BME280;3908;52.310;7.230;2023-03-02T02:35:24;51197.88;;;-145.83;100.00
7730;BME280;3908;52.310;7.230;2023-03-02T02:38:17;51223.28;;;-145.83;100.00
7730;BME280;3908;52.310;7.230;2023-03-02T02:41:07;51223.28;;;-145.83;100.00
7730;BME280;3908;52.310;7.230;2023-03-02T02:43:58;51215.47;;;-145.83;100.00
7730;BME280;3908;52.310;7.230;2023-03-02T02:46:45;51199.81;;;-145.83;100.00
7730;BME280;3908;52.310;7.230;2023-03-02T02:49:34;51201.78;;;-145.83;100.00
7730;BME280;3908;52.310;7.230;2023-03-02T02:52:25;51209.59;;;-145.83;100.00
7730;BME280;3908;52.310;7.230;2023-03-02T02:55:15;51209.59;;;-145.83;100.00
7730;BME280;3908;52.310;7.230;2023-03-02T02:58:12;51240.91;;;-145.83;100.00
7730;BME280;3908;52.310;7.230;2023-03-02T03:01:05;51207.66;;;-145.83;100.00
7730;BME280;3908;52.310;7.230;2023-03-02T03:03:54;51219.38;;;-145.83;100.00
7730;BME280;3908;52.310;7.230;2023-03-02T03:06:48;51227.22;;;-145.83;100.00
7730;BME280;3908;52.310;7.230;2023-03-02T03:09:36;51237.00;;;-145.83;100.00
7730;BME280;3908;52.310;7.230;2023-03-02T03:12:25;51178.31;;;-145.83;100.00
7730;BME280;3908;52.310;7.230;2023-03-02T03:15:12;51190.03;;;-145.83;100.00
7730;BME280;3908;52.310;7.230;2023-03-02T03:18:01;51225.25;;;-145.83;100.00
7730;BME280;3908;52.310;7.230;2023-03-02T03:20:48;51219.38;;;-145.83;100.00
7730;BME280;3908;52.310;7.230;2023-03-02T03:23:35;51209.59;;;-145.83;100.00
7730;BME280;3908;52.310;7.230;2023-03-02T03:26:22;51195.91;;;-145.83;100.00
7730;BME280;3908;52.310;7.230;2023-03-02T03:29:10;51188.09;;;-145.83;100.00
7730;BME280;3908;52.310;7.230;2023-03-02T03:31:58;51213.50;;;-145.83;100.00
7730;BME280;3908;52.310;7.230;2023-03-02T03:34:47;51217.44;;;-145.83;100.00
7730;BME280;3908;52.310;7.230;2023-03-02T03:37:35;51221.34;;;-145.83;100.00
7730;BME280;3908;52.310;7.230;2023-03-02T03:40:22;51233.06;;;-145.83;100.00
7730;BME280;3908;52.310;7.230;2023-03-02T03:43:09;51209.59;;;-145.83;100.00
7730;BME280;3908;52.310;7.230;2023-03-02T03:45:57;51217.44;;;-145.83;100.00
7730;BME280;3908;52.310;7.230;2023-03-02T03:48:44;51223.28;;;-145.83;100.00
7730;BME280;3908;52.310;7.230;2023-03-02T03:51:32;51231.13;;;-145.83;100.00
7730;BME280;3908;52.310;7.230;2023-03-02T03:54:19;51197.88;;;-145.83;100.00
7730;BME280;3908;52.310;7.230;2023-03-02T03:57:07;51237.00;;;-145.83;100.00
7730;BME280;3908;52.310;7.230;2023-03-02T03:59:56;51256.56;;;-145.83;100.00
7730;BME280;3908;52.310;7.230;2023-03-02T04:02:43;51213.50;;;-145.83;100.00
7730;BME280;3908;52.310;7.230;2023-03-02T04:05:30;51213.50;;;-145.83;100.00
7730;BME280;3908;52.310;7.230;2023-03-02T04:08:19;51223.28;;;-145.83;100.00
7730;BME280;3908;52.310;7.230;2023-03-02T04:11:06;51195.91;;;-145.83;100.00
7730;BME280;3908;52.310;7.230;2023-03-02T04:13:53;51215.47;;;-145.83;100.00
7730;BME280;3908;52.310;7.230;2023-03-02T04:16:40;51221.34;;;-145.83;100.00
7730;BME280;3908;52.310;7.230;2023-03-02T04:19:27;51215.47;;;-145.83;100.00
7730;BME280;3908;52.310;7.230;2023-03-02T04:22:15;51184.19;;;-145.83;100.00
7730;BME280;3908;52.310;7.230;2023-03-02T04:25:04;51180.25;;;-145.83;100.00
7730;BME280;3908;52.310;7.230;2023-03-02T04:27:52;51227.22;;;-145.83;100.00
7730;BME280;3908;52.310;7.230;2023-03-02T04:30:39;51237.00;;;-145.83;100.00
7730;BME280;3908;52.310;7.230;2023-03-02T04:33:26;51227.22;;;-145.83;100.00
7730;BME280;3908;52.310;7.230;2023-03-02T04:36:13;51215.47;;;-145.83;100.00
7730;BME280;3908;52.310;7.230;2023-03-02T04:39:02;51225.25;;;-145.83;100.00
7730;BME280;3908;52.310;7.230;2023-03-02T04:41:51;51246.78;;;-145.83;100.00
7730;BME280;3908;52.310;7.230;2023-03-02T04:44:39;51211.56;;;-145.83;100.00
7730;BME280;3908;52.310;7.230;2023-03-02T04:47:26;51231.13;;;-145.83;100.00
7730;BME280;3908;52.310;7.230;2023-03-02T04:50:14;51215.47;;;-145.83;100.00
7730;BME280;3908;52.310;7.230;2023-03-02T04:53:00;51225.25;;;-145.83;100.00
7730;BME280;3908;52.310;7.230;2023-03-02T04:55:47;51197.88;;;-145.83;100.00
7730;BME280;3908;52.310;7.230;2023-03-02T04:58:36;51195.91;;;-145.83;100.00
7730;BME280;3908;52.310;7.230;2023-03-02T05:01:23;51233.06;;;-145.83;100.00
7730;BME280;3908;52.310;7.230;2023-03-02T05:04:11;51254.59;;;-145.83;100.00
7730;BME280;3908;52.310;7.230;2023-03-02T05:06:58;51193.97;;;-145.83;100.00
7730;BME280;3908;52.310;7.230;2023-03-02T05:09:45;51231.13;;;-145.83;100.00
7730;BME280;3908;52.310;7.230;2023-03-02T05:12:32;51225.25;;;-145.83;100.00
7730;BME280;3908;52.310;7.230;2023-03-02T05:15:40;51219.38;;;-145.83;100.00
7730;BME280;3908;52.310;7.230;2023-03-02T05:18:28;51225.25;;;-145.83;100.00
7730;BME280;3908;52.310;7.230;2023-03-02T05:21:16;51219.38;;;-145.83;100.00
7730;BME280;3908;52.310;7.230;2023-03-02T05:24:04;51231.13;;;-145.83;100.00
7730;BME280;3908;52.310;7.230;2023-03-02T05:26:51;51242.84;;;-145.83;100.00
7730;BME280;3908;52.310;7.230;2023-03-02T05:29:38;51207.66;;;-145.83;100.00
7730;BME280;3908;52.310;7.230;2023-03-02T05:32:26;51180.25;;;-145.83;100.00
7730;BME280;3908;52.310;7.230;2023-03-02T05:35:13;51242.84;;;-145.83;100.00
7730;BME280;3908;52.310;7.230;2023-03-02T05:38:00;51211.56;;;-145.83;100.00
7730;BME280;3908;52.310;7.230;2023-03-02T05:40:47;51237.00;;;-145.83;100.00
7730;BME280;3908;52.310;7.230;2023-03-02T05:43:35;51229.16;;;-145.83;100.00
7730;BME280;3908;52.310;7.230;2023-03-02T05:46:23;51223.28;;;-145.83;100.00
7730;BME280;3908;52.310;7.230;2023-03-02T05:49:11;51199.81;;;-145.83;100.00
7730;BME280;3908;52.310;7.230;2023-03-02T05:51:58;51237.00;;;-145.83;100.00
7730;BME280;3908;52.310;7.230;2023-03-02T05:54:45;51217.44;;;-145.83;100.00
7730;BME280;3908;52.310;7.230;2023-03-02T05:57:32;51190.03;;;-145.83;100.00
7730;BME280;3908;52.310;7.230;2023-03-02T06:00:20;51225.25;;;-145.83;100.00
7730;BME280;3908;52.310;7.230;2023-03-02T06:03:07;51192.00;;;-145.83;100.00
7730;BME280;3908;52.310;7.230;2023-03-02T06:05:56;51217.44;;;-145.83;100.00
7730;BME280;3908;52.310;7.230;2023-03-02T06:08:43;51252.66;;;-145.83;100.00
7730;BME280;3908;52.310;7.230;2023-03-02T06:11:30;51237.00;;;-145.83;100.00
7730;BME280;3908;52.310;7.230;2023-03-02T06:14:17;51215.47;;;-145.83;100.00
7730;BME280;3908;52.310;7.230;2023-03-02T06:17:04;51166.56;;;-145.83;100.00
7730;BME280;3908;52.310;7.230;2023-03-02T06:19:51;51223.28;;;-145.83;100.00
7730;BME280;3908;52.310;7.230;2023-03-02T06:22:41;51246.78;;;-145.83;100.00
7730;BME280;3908;52.310;7.230;2023-03-02T06:25:29;51203.72;;;-145.83;100.00
7730;BME280;3908;52.310;7.230;2023-03-02T06:28:17;51207.66;;;-145.83;100.00
7730;BME280;3908;52.310;7.230;2023-03-02T06:31:05;51246.78;;;-145.83;100.00
7730;BME280;3908;52.310;7.230;2023-03-02T06:33:52;51195.91;;;-145.83;100.00
7730;BME280;3908;52.310;7.230;2023-03-02T06:36:39;51217.44;;;-145.83;100.00
7730;BME280;3908;52.310;7.230;2023-03-02T06:39:27;51242.84;;;-145.83;100.00
7730;BME280;3908;52.310;7.230;2023-03-02T06:42:14;51199.81;;;-145.83;100.00
7730;BME280;3908;52.310;7.230;2023-03-02T06:45:02;51221.34;;;-145.83;100.00
7730;BME280;3908;52.310;7.230;2023-03-02T06:47:49;51246.78;;;-145.83;100.00
7730;BME280;3908;52.310;7.230;2023-03-02T06:50:36;51207.66;;;-145.83;100.00
7730;BME280;3908;52.310;7.230;2023-03-02T06:53:23;51240.91;;;-145.83;100.00
7730;BME280;3908;52.310;7.230;2023-03-02T06:56:12;51219.38;;;-145.83;100.00
7730;BME280;3908;52.310;7.230;2023-03-02T06:58:59;51252.66;;;-145.83;100.00
7730;BME280;3908;52.310;7.230;2023-03-02T07:01:46;51219.38;;;-145.83;100.00
7730;BME280;3908;52.310;7.230;2023-03-02T07:04:35;51238.94;;;-145.83;100.00
7730;BME280;3908;52.310;7.230;2023-03-02T07:07:22;51203.72;;;-145.83;100.00
7730;BME280;3908;52.310;7.230;2023-03-02T07:10:10;51203.72;;;-145.83;100.00
7730;BME280;3908;52.310;7.230;2023-03-02T07:12:59;51270.25;;;-145.83;100.00
7730;BME280;3908;52.310;7.230;2023-03-02T07:15:46;51248.72;;;-145.83;100.00
7730;BME280;3908;52.310;7.230;2023-03-02T07:18:33;51264.38;;;-145.83;100.00
7730;BME280;3908;52.310;7.230;2023-03-02T07:21:20;51213.50;;;-145.83;100.00
7730;BME280;3908;52.310;7.230;2023-03-02T07:24:08;51246.78;;;-145.83;100.00
7730;BME280;3908;52.310;7.230;2023-03-02T07:26:54;51186.13;;;-145.83;100.00
7730;BME280;3908;52.310;7.230;2023-03-02T07:29:43;51193.97;;;-145.83;100.00
7730;BME280;3908;52.310;7.230;2023-03-02T07:32:30;51225.25;;;-145.83;100.00
7730;BME280;3908;52.310;7.230;2023-03-02T07:35:17;51238.94;;;-145.83;100.00
7730;BME280;3908;52.310;7.230;2023-03-02T07:38:04;51225.25;;;-145.83;100.00
7730;BME280;3908;52.310;7.230;2023-03-02T07:40:51;51272.22;;;-145.83;100.00
7730;BME280;3908;52.310;7.230;2023-03-02T07:43:38;51197.88;;;-145.83;100.00
7730;BME280;3908;52.310;7.230;2023-03-02T07:46:27;51227.22;;;-145.83;100.00
7730;BME280;3908;52.310;7.230;2023-03-02T07:49:13;51240.91;;;-145.83;100.00
7730;BME280;3908;52.310;7.230;2023-03-02T07:52:01;51231.13;;;-145.83;100.00
7730;BME280;3908;52.310;7.230;2023-03-02T07:54:48;51227.22;;;-145.83;100.00
7730;BME280;3908;52.310;7.230;2023-03-02T07:57:35;51217.44;;;-145.83;100.00
7730;BME280;3908;52.310;7.230;2023-03-02T08:00:23;51237.00;;;-145.83;100.00
7730;BME280;3908;52.310;7.230;2023-03-02T08:03:11;51201.78;;;-145.83;100.00
7730;BME280;3908;52.310;7.230;2023-03-02T08:06:03;51262.44;;;-145.83;100.00
7730;BME280;3908;52.310;7.230;2023-03-02T08:08:50;51199.81;;;-145.83;100.00
7730;BME280;3908;52.310;7.230;2023-03-02T08:11:38;51238.94;;;-145.83;100.00
7730;BME280;3908;52.310;7.230;2023-03-02T08:14:25;51225.25;;;-145.83;100.00
7730;BME280;3908;52.310;7.230;2023-03-02T08:17:12;51237.00;;;-145.83;100.00
7730;BME280;3908;52.310;7.230;2023-03-02T08:20:00;51235.03;;;-145.83;100.00
7730;BME280;3908;52.310;7.230;2023-03-02T08:22:48;51256.56;;;-145.83;100.00
7730;BME280;3908;52.310;7.230;2023-03-02T08:25:36;51246.78;;;-145.83;100.00
7730;BME280;3908;52.310;7.230;2023-03-02T08:28:23;51268.28;;;-145.83;100.00
7730;BME280;3908;52.310;7.230;2023-03-02T08:31:11;51199.81;;;-145.83;100.00
7730;BME280;3908;52.310;7.230;2023-03-02T08:33:58;51221.34;;;-145.83;100.00
7730;BME280;3908;52.310;7.230;2023-03-02T08:36:46;51252.66;;;-145.83;100.00
7730;BME280;3908;52.310;7.230;2023-03-02T08:39:33;51211.56;;;-145.83;100.00
7730;BME280;3908;52.310;7.230;2023-03-02T08:42:20;51266.34;;;-145.83;100.00
7730;BME280;3908;52.310;7.230;2023-03-02T08:45:08;51229.16;;;-145.83;100.00
7730;BME280;3908;52.310;7.230;2023-03-02T08:47:55;51231.13;;;-145.83;100.00
7730;BME280;3908;52.310;7.230;2023-03-02T08:50:42;51235.03;;;-145.83;100.00
7730;BME280;3908;52.310;7.230;2023-03-02T08:53:32;51231.13;;;-145.83;100.00
7730;BME280;3908;52.310;7.230;2023-03-02T08:56:21;51242.84;;;-145.83;100.00
7730;BME280;3908;52.310;7.230;2023-03-02T08:59:10;51229.16;;;-145.83;100.00
7730;BME280;3908;52.310;7.230;2023-03-02T09:01:58;51227.22;;;-145.83;100.00
7730;BME280;3908;52.310;7.230;2023-03-02T09:04:45;51246.78;;;-145.83;100.00
7730;BME280;3908;52.310;7.230;2023-03-02T09:07:32;51242.84;;;-145.83;100.00
7730;BME280;3908;52.310;7.230;2023-03-02T09:10:20;51272.22;;;-145.83;100.00
7730;BME280;3908;52.310;7.230;2023-03-02T09:13:07;51291.75;;;-145.83;100.00
7730;BME280;3908;52.310;7.230;2023-03-02T09:15:55;51270.25;;;-145.83;100.00
7730;BME280;3908;52.310;7.230;2023-03-02T09:18:42;51258.50;;;-145.83;100.00
7730;BME280;3908;52.310;7.230;2023-03-02T09:21:29;51274.16;;;-145.83;100.00
7730;BME280;3908;52.310;7.230;2023-03-02T09:24:17;51270.25;;;-145.83;100.00
7730;BME280;3908;52.310;7.230;2023-03-02T09:27:05;51297.63;;;-145.83;100.00
7730;BME280;3908;52.310;7.230;2023-03-02T09:29:52;51211.56;;;-145.83;100.00
7730;BME280;3908;52.310;7.230;2023-03-02T09:32:41;51287.84;;;-145.83;100.00
7730;BME280;3908;52.310;7.230;2023-03-02T09:35:28;51248.72;;;-145.83;100.00
7730;BME280;3908;52.310;7.230;2023-03-02T09:38:16;51264.38;;;-145.83;100.00
7730;BME280;3908;52.310;7.230;2023-03-02T09:41:18;51281.97;;;-145.83;100.00
7730;BME280;3908;52.310;7.230;2023-03-02T09:47:34;51260.47;;;-145.83;100.00
7730;BME280;3908;52.310;7.230;2023-03-02T09:50:27;51283.94;;;-145.83;100.00
7730;BME280;3908;52.310;7.230;2023-03-02T09:53:35;51274.16;;;-145.83;100.00
7730;BME280;3908;52.310;7.230;2023-03-02T09:56:23;51252.66;;;-145.83;100.00
7730;BME280;3908;52.310;7.230;2023-03-02T09:59:21;51268.28;;;-145.83;100.00
7730;BME280;3908;52.310;7.230;2023-03-02T10:02:22;51270.25;;;-145.83;100.00
7730;BME280;3908;52.310;7.230;2023-03-02T10:05:16;51258.50;;;-145.83;100.00
7730;BME280;3908;52.310;7.230;2023-03-02T10:08:03;51276.13;;;-145.83;100.00
7730;BME280;3908;52.310;7.230;2023-03-02T10:10:56;51270.25;;;-145.83;100.00
7730;BME280;3908;52.310;7.230;2023-03-02T10:13:47;51262.44;;;-145.83;100.00
7730;BME280;3908;52.310;7.230;2023-03-02T10:16:41;51283.94;;;-145.83;100.00
7730;BME280;3908;52.310;7.230;2023-03-02T10:19:38;51301.53;;;-145.83;100.00
7730;BME280;3908;52.310;7.230;2023-03-02T10:22:30;51268.28;;;-145.83;100.00
7730;BME280;3908;52.310;7.230;2023-03-02T10:25:28;51307.41;;;-145.83;100.00
7730;BME280;3908;52.310;7.230;2023-03-02T10:28:20;51260.47;;;-145.83;100.00
7730;BME280;3908;52.310;7.230;2023-03-02T10:31:08;51291.75;;;-145.83;100.00
7730;BME280;3908;52.310;7.230;2023-03-02T10:33:58;51291.75;;;-145.83;100.00
7730;BME280;3908;52.310;7.230;2023-03-02T10:36:45;51260.47;;;-145.83;100.00
7730;BME280;3908;52.310;7.230;2023-03-02T10:39:32;51293.72;;;-145.83;100.00
7730;BME280;3908;52.310;7.230;2023-03-02T10:42:22;51266.34;;;-145.83;100.00
7730;BME280;3908;52.310;7.230;2023-03-02T10:45:27;51313.28;;;-145.83;100.00
7730;BME280;3908;52.310;7.230;2023-03-02T10:48:15;51307.41;;;-145.83;100.00
7730;BME280;3908;52.310;7.230;2023-03-02T10:51:04;51278.06;;;-145.83;100.00
7730;BME280;3908;52.310;7.230;2023-03-02T10:54:02;51305.47;;;-145.83;100.00
7730;BME280;3908;52.310;7.230;2023-03-02T10:56:51;51289.81;;;-145.83;100.00
7730;BME280;3908;52.310;7.230;2023-03-02T10:59:44;51307.41;;;-145.83;100.00
7730;BME280;3908;52.310;7.230;2023-03-02T11:02:33;51321.09;;;-145.83;99.50
7730;BME280;3908;52.310;7.230;2023-03-02T11:05:26;51289.81;;;-145.83;100.00
7730;BME280;3908;52.310;7.230;2023-03-02T11:08:19;51307.41;;;-145.83;100.00
7730;BME280;3908;52.310;7.230;2023-03-02T11:11:20;51287.84;;;-145.83;100.00
7730;BME280;3908;52.310;7.230;2023-03-02T11:14:09;51317.19;;;-145.83;97.20
7730;BME280;3908;52.310;7.230;2023-03-02T11:17:00;51256.56;;;-145.83;98.27
7730;BME280;3908;52.310;7.230;2023-03-02T11:19:48;51307.41;;;-145.83;96.57
7730;BME280;3908;52.310;7.230;2023-03-02T11:22:39;51278.06;;;-145.83;97.82
7730;BME280;3908;52.310;7.230;2023-03-02T11:25:32;51285.91;;;-145.83;95.17
7730;BME280;3908;52.310;7.230;2023-03-02T11:28:29;51287.84;;;-145.83;97.66
7730;BME280;3908;52.310;7.230;2023-03-02T11:31:25;51280.03;;;-145.83;94.12
7730;BME280;3908;52.310;7.230;2023-03-02T11:34:24;51338.72;;;-145.83;94.78
7730;BME280;3908;52.310;7.230;2023-03-02T11:37:16;51299.59;;;-145.83;91.08
7730;BME280;3908;52.310;7.230;2023-03-02T11:40:14;51297.63;;;-145.83;93.60
7730;BME280;3908;52.310;7.230;2023-03-02T11:43:08;51321.09;;;-145.83;93.82
7730;BME280;3908;52.310;7.230;2023-03-02T11:45:58;51330.91;;;-145.83;93.06
7730;BME280;3908;52.310;7.230;2023-03-02T11:48:48;51328.94;;;-145.83;92.84
7730;BME280;3908;52.310;7.230;2023-03-02T11:51:38;51299.59;;;-145.83;93.79
7730;BME280;3908;52.310;7.230;2023-03-02T11:54:42;51305.47;;;-145.83;91.36
7730;BME280;3908;52.310;7.230;2023-03-02T11:57:32;51321.09;;;-145.83;93.32
7730;BME280;3908;52.310;7.230;2023-03-02T12:00:33;51321.09;;;-145.83;92.10
7730;BME280;3908;52.310;7.230;2023-03-02T12:03:34;51307.41;;;-145.83;90.51
7730;BME280;3908;52.310;7.230;2023-03-02T12:06:28;51315.25;;;-145.83;90.71
7730;BME280;3908;52.310;7.230;2023-03-02T12:09:27;51309.38;;;-145.83;91.83
7730;BME280;3908;52.310;7.230;2023-03-02T12:12:35;51289.81;;;-145.83;88.37
7730;BME280;3908;52.310;7.230;2023-03-02T12:15:28;51348.50;;;-145.83;88.95
7730;BME280;3908;52.310;7.230;2023-03-02T12:21:38;51325.03;;;-145.83;86.93
7730;BME280;3908;52.310;7.230;2023-03-02T12:24:27;51336.75;;;-145.83;87.06
7730;BME280;3908;52.310;7.230;2023-03-02T12:27:23;51289.81;;;-145.83;87.88
7730;BME280;3908;52.310;7.230;2023-03-02T12:30:22;51289.81;;;-145.83;88.42
7730;BME280;3908;52.310;7.230;2023-03-02T12:33:18;51283.94;;;-145.83;87.32
7730;BME280;3908;52.310;7.230;2023-03-02T12:36:13;51301.53;;;-145.83;87.74
7730;BME280;3908;52.310;7.230;2023-03-02T12:39:16;51268.28;;;-145.83;87.45
7730;BME280;3908;52.310;7.230;2023-03-02T12:42:28;51334.81;;;-145.83;87.32
7730;BME280;3908;52.310;7.230;2023-03-02T12:45:29;51321.09;;;-145.83;87.32
7730;BME280;3908;52.310;7.230;2023-03-02T12:48:24;51346.53;;;-145.83;86.59
7730;BME280;3908;52.310;7.230;2023-03-02T12:51:17;51313.28;;;-145.83;89.08
7730;BME280;3908;52.310;7.230;2023-03-02T12:54:12;51354.38;;;-145.83;86.48
7730;BME280;3908;52.310;7.230;2023-03-02T12:57:05;51334.81;;;-145.83;88.36
7730;BME280;3908;52.310;7.230;2023-03-02T12:59:55;51289.81;;;-145.83;90.03
7730;BME280;3908;52.310;7.230;2023-03-02T13:02:45;51297.63;;;-145.83;85.28
7730;BME280;3908;52.310;7.230;2023-03-02T13:05:34;51338.72;;;-145.83;85.12
7730;BME280;3908;52.310;7.230;2023-03-02T13:08:25;51323.06;;;-145.83;84.33
7730;BME280;3908;52.310;7.230;2023-03-02T13:11:20;51287.84;;;-145.83;85.18
7730;BME280;3908;52.310;7.230;2023-03-02T13:14:17;51346.53;;;-145.83;85.30
7730;BME280;3908;52.310;7.230;2023-03-02T13:17:05;51356.31;;;-145.83;84.12
7730;BME280;3908;52.310;7.230;2023-03-02T13:19:52;51346.53;;;-145.83;85.97
7730;BME280;3908;52.310;7.230;2023-03-02T13:22:39;51319.16;;;-145.83;85.95
7730;BME280;3908;52.310;7.230;2023-03-02T13:25:29;51350.47;;;-145.83;86.56
7730;BME280;3908;52.310;7.230;2023-03-02T13:28:27;51315.25;;;-145.83;86.45
7730;BME280;3908;52.310;7.230;2023-03-02T13:31:18;51313.28;;;-145.83;87.27
7730;BME280;3908;52.310;7.230;2023-03-02T13:34:19;51338.72;;;-145.83;86.75
7730;BME280;3908;52.310;7.230;2023-03-02T13:37:18;51326.97;;;-145.83;84.75
7730;BME280;3908;52.310;7.230;2023-03-02T13:40:32;51325.03;;;-145.83;83.85
7730;BME280;3908;52.310;7.230;2023-03-02T13:43:33;51342.63;;;-145.83;83.27
7730;BME280;3908;52.310;7.230;2023-03-02T13:46:31;51301.53;;;-145.83;86.20
7730;BME280;3908;52.310;7.230;2023-03-02T13:49:27;51315.25;;;-145.83;84.92
7730;BME280;3908;52.310;7.230;2023-03-02T13:52:19;51309.38;;;-145.83;83.23
7730;BME280;3908;52.310;7.230;2023-03-02T13:55:12;51338.72;;;-145.83;83.63
7730;BME280;3908;52.310;7.230;2023-03-02T13:58:01;51332.84;;;-145.83;84.17
7730;BME280;3908;52.310;7.230;2023-03-02T14:00:48;51325.03;;;-145.83;84.14
7730;BME280;3908;52.310;7.230;2023-03-02T14:03:36;51346.53;;;-145.83;83.55
7730;BME280;3908;52.310;7.230;2023-03-02T14:06:23;51362.19;;;-145.83;85.80
7730;BME280;3908;52.310;7.230;2023-03-02T14:09:10;51330.91;;;-145.83;84.11
7730;BME280;3908;52.310;7.230;2023-03-02T14:11:57;51360.22;;;-145.83;85.09
7730;BME280;3908;52.310;7.230;2023-03-02T14:14:46;51297.63;;;-145.83;84.78
7730;BME280;3908;52.310;7.230;2023-03-02T14:17:34;51311.31;;;-145.83;86.15
7730;BME280;3908;52.310;7.230;2023-03-02T14:20:20;51325.03;;;-145.83;86.05
7730;BME280;3908;52.310;7.230;2023-03-02T14:23:07;51338.72;;;-145.83;85.87
7730;BME280;3908;52.310;7.230;2023-03-02T14:25:55;51315.25;;;-145.83;86.58
7730;BME280;3908;52.310;7.230;2023-03-02T14:28:42;51332.84;;;-145.83;87.04
7730;BME280;3908;52.310;7.230;2023-03-02T14:31:31;51313.28;;;-145.83;87.00
7730;BME280;3908;52.310;7.230;2023-03-02T14:34:19;51297.63;;;-145.83;86.50
7730;BME280;3908;52.310;7.230;2023-03-02T14:37:10;51317.19;;;-145.83;87.40
7730;BME280;3908;52.310;7.230;2023-03-02T14:39:58;51346.53;;;-145.83;87.78
7730;BME280;3908;52.310;7.230;2023-03-02T14:42:45;51299.59;;;-145.83;86.34
7730;BME280;3908;52.310;7.230;2023-03-02T14:45:33;51299.59;;;-145.83;84.77
7730;BME280;3908;52.310;7.230;2023-03-02T14:48:21;51313.28;;;-145.83;82.30
7730;BME280;3908;52.310;7.230;2023-03-02T14:51:17;51336.75;;;-145.83;83.24
7730;BME280;3908;52.310;7.230;2023-03-02T14:54:08;51340.69;;;-145.83;83.82
7730;BME280;3908;52.310;7.230;2023-03-02T14:56:57;51289.81;;;-145.83;85.14
7730;BME280;3908;52.310;7.230;2023-03-02T14:59:44;51309.38;;;-145.83;84.97